sensor_id;sensor_type;location;lat;lon;timestamp;P1;durP1;ratioP1;P2;durP2;ratioP2
41343;SDS011;27089;50.022;7.604;2023-06-24T00:02:19;6.40;;;5.43;;
41343;SDS011;27089;50.022;7.604;2023-06-24T00:04:49;6.23;;;5.00;;
41343;SDS011;27089;50.022;7.604;2023-06-24T00:07:17;6.40;;;5.50;;
41343;SDS011;27089;50.022;7.604;2023-06-24T00:09:44;7.83;;;5.50;;
41343;SDS011;27089;50.022;7.604;2023-06-24T00:12:12;6.13;;;5.53;;
41343;SDS011;27089;50.022;7.604;2023-06-24T00:14:44;6.27;;;5.00;;
41343;SDS011;27089;50.022;7.604;2023-06-24T00:17:11;7.87;;;5.30;;
41343;SDS011;27089;50.022;7.604;2023-06-24T00:19:38;9.63;;;5.50;;
41343;SDS011;27089;50.022;7.604;2023-06-24T00:22:05;6.10;;;5.50;;
41343;SDS011;27089;50.022;7.604;2023-06-24T00:24:32;9.50;;;4.93;;
41343;SDS011;27089;50.022;7.604;2023-06-24T00:26:59;7.70;;;5.83;;
41343;SDS011;27089;50.022;7.604;2023-06-24T00:29:28;6.43;;;5.40;;
41343;SDS011;27089;50.022;7.604;2023-06-24T00:31:55;8.03;;;5.40;;
41343;SDS011;27089;50.022;7.604;2023-06-24T00:34:22;7.00;;;5.20;;
41343;SDS011;27089;50.022;7.604;2023-06-24T00:36:49;6.37;;;5.70;;
41343;SDS011;27089;50.022;7.604;2023-06-24T00:39:16;7.13;;;4.93;;
41343;SDS011;27089;50.022;7.604;2023-06-24T00:41:43;7.53;;;5.87;;
41343;SDS011;27089;50.022;7.604;2023-06-24T00:44:10;11.57;;;5.87;;
41343;SDS011;27089;50.022;7.604;2023-06-24T00:46:39;9.80;;;6.50;;
41343;SDS011;27089;50.022;7.604;2023-06-24T00:49:06;9.17;;;6.73;;
41343;SDS011;27089;50.022;7.604;2023-06-24T00:51:33;9.50;;;6.43;;
41343;SDS011;27089;50.022;7.604;2023-06-24T00:54:01;10.50;;;6.60;;
41343;SDS011;27089;50.022;7.604;2023-06-24T00:56:30;7.83;;;6.10;;
41343;SDS011;27089;50.022;7.604;2023-06-24T00:59:00;10.13;;;5.53;;
41343;SDS011;27089;50.022;7.604;2023-06-24T01:01:28;8.63;;;6.00;;
41343;SDS011;27089;50.022;7.604;2023-06-24T01:04:00;7.17;;;5.50;;
41343;SDS011;27089;50.022;7.604;2023-06-24T01:06:28;6.73;;;5.23;;
41343;SDS011;27089;50.022;7.604;2023-06-24T01:08:55;8.20;;;5.90;;
41343;SDS011;27089;50.022;7.604;2023-06-24T01:11:22;11.50;;;5.30;;
41343;SDS011;27089;50.022;7.604;2023-06-24T01:13:50;9.00;;;5.77;;
41343;SDS011;27089;50.022;7.604;2023-06-24T01:16:25;6.73;;;5.53;;
41343;SDS011;27089;50.022;7.604;2023-06-24T01:18:57;8.77;;;5.37;;
41343;SDS011;27089;50.022;7.604;2023-06-24T01:21:33;8.27;;;5.40;;
41343;SDS011;27089;50.022;7.604;2023-06-24T01:24:23;8.63;;;5.47;;
41343;SDS011;27089;50.022;7.604;2023-06-24T01:27:19;6.80;;;5.40;;
41343;SDS011;27089;50.022;7.604;2023-06-24T01:30:15;8.70;;;5.37;;
41343;SDS011;27089;50.022;7.604;2023-06-24T01:32:55;10.60;;;6.27;;
41343;SDS011;27089;50.022;7.604;2023-06-24T01:35:28;8.67;;;5.47;;
41343;SDS011;27089;50.022;7.604;2023-06-24T01:37:58;8.80;;;5.70;;
41343;SDS011;27089;50.022;7.604;2023-06-24T01:40:30;7.53;;;5.63;;
41343;SDS011;27089;50.022;7.604;2023-06-24T01:43:02;11.13;;;5.63;;
41343;SDS011;27089;50.022;7.604;2023-06-24T01:45:32;9.93;;;5.80;;
41343;SDS011;27089;50.022;7.604;2023-06-24T01:48:05;6.37;;;5.43;;
41343;SDS011;27089;50.022;7.604;2023-06-24T01:50:35;7.80;;;5.57;;
41343;SDS011;27089;50.022;7.604;2023-06-24T01:53:05;10.53;;;5.67;;
41343;SDS011;27089;50.022;7.604;2023-06-24T01:55:33;9.80;;;5.53;;
41343;SDS011;27089;50.022;7.604;2023-06-24T01:58:03;10.87;;;5.70;;
41343;SDS011;27089;50.022;7.604;2023-06-24T02:00:33;9.67;;;5.10;;
41343;SDS011;27089;50.022;7.604;2023-06-24T02:03:01;13.23;;;5.80;;
41343;SDS011;27089;50.022;7.604;2023-06-24T02:05:31;12.97;;;5.70;;
41343;SDS011;27089;50.022;7.604;2023-06-24T02:08:00;7.90;;;5.63;;
41343;SDS011;27089;50.022;7.604;2023-06-24T02:10:28;9.57;;;5.03;;
41343;SDS011;27089;50.022;7.604;2023-06-24T02:12:56;8.27;;;5.10;;
41343;SDS011;27089;50.022;7.604;2023-06-24T02:15:23;7.97;;;5.20;;
41343;SDS011;27089;50.022;7.604;2023-06-24T02:17:51;8.60;;;5.60;;
41343;SDS011;27089;50.022;7.604;2023-06-24T02:20:23;8.80;;;5.93;;
41343;SDS011;27089;50.022;7.604;2023-06-24T02:22:52;8.53;;;5.33;;
41343;SDS011;27089;50.022;7.604;2023-06-24T02:25:19;9.30;;;5.60;;
41343;SDS011;27089;50.022;7.604;2023-06-24T02:27:47;12.17;;;5.30;;
41343;SDS011;27089;50.022;7.604;2023-06-24T02:30:14;8.40;;;5.50;;
41343;SDS011;27089;50.022;7.604;2023-06-24T02:32:42;8.10;;;5.23;;
41343;SDS011;27089;50.022;7.604;2023-06-24T02:35:09;10.50;;;5.50;;
41343;SDS011;27089;50.022;7.604;2023-06-24T02:37:37;10.60;;;5.43;;
41343;SDS011;27089;50.022;7.604;2023-06-24T02:40:04;7.83;;;5.13;;
41343;SDS011;27089;50.022;7.604;2023-06-24T02:42:34;9.27;;;5.83;;
41343;SDS011;27089;50.022;7.604;2023-06-24T02:45:01;7.43;;;5.23;;
41343;SDS011;27089;50.022;7.604;2023-06-24T02:47:29;7.83;;;5.07;;
41343;SDS011;27089;50.022;7.604;2023-06-24T02:49:57;7.73;;;5.33;;
41343;SDS011;27089;50.022;7.604;2023-06-24T02:52:25;7.90;;;5.63;;
41343;SDS011;27089;50.022;7.604;2023-06-24T02:54:55;12.97;;;5.43;;
41343;SDS011;27089;50.022;7.604;2023-06-24T02:57:23;11.03;;;5.40;;
41343;SDS011;27089;50.022;7.604;2023-06-24T02:59:51;10.97;;;5.33;;
41343;SDS011;27089;50.022;7.604;2023-06-24T03:02:18;12.70;;;5.87;;
41343;SDS011;27089;50.022;7.604;2023-06-24T03:04:45;14.30;;;5.60;;
41343;SDS011;27089;50.022;7.604;2023-06-24T03:07:12;9.80;;;5.20;;
41343;SDS011;27089;50.022;7.604;2023-06-24T03:09:40;10.40;;;5.97;;
41343;SDS011;27089;50.022;7.604;2023-06-24T03:12:09;8.93;;;6.00;;
41343;SDS011;27089;50.022;7.604;2023-06-24T03:14:37;9.87;;;5.57;;
41343;SDS011;27089;50.022;7.604;2023-06-24T03:17:04;10.43;;;6.13;;
41343;SDS011;27089;50.022;7.604;2023-06-24T03:19:31;11.20;;;6.20;;
41343;SDS011;27089;50.022;7.604;2023-06-24T03:21:58;9.73;;;5.70;;
41343;SDS011;27089;50.022;7.604;2023-06-24T03:24:25;9.00;;;6.33;;
41343;SDS011;27089;50.022;7.604;2023-06-24T03:26:52;10.60;;;6.03;;
41343;SDS011;27089;50.022;7.604;2023-06-24T03:29:23;13.40;;;6.07;;
41343;SDS011;27089;50.022;7.604;2023-06-24T03:31:50;11.17;;;6.83;;
41343;SDS011;27089;50.022;7.604;2023-06-24T03:34:17;9.80;;;6.30;;
41343;SDS011;27089;50.022;7.604;2023-06-24T03:36:44;9.53;;;6.17;;
41343;SDS011;27089;50.022;7.604;2023-06-24T03:39:11;11.50;;;5.80;;
41343;SDS011;27089;50.022;7.604;2023-06-24T03:41:38;17.50;;;6.63;;
41343;SDS011;27089;50.022;7.604;2023-06-24T03:44:05;14.13;;;6.13;;
41343;SDS011;27089;50.022;7.604;2023-06-24T03:46:33;12.10;;;6.57;;
41343;SDS011;27089;50.022;7.604;2023-06-24T03:49:01;14.03;;;6.10;;
41343;SDS011;27089;50.022;7.604;2023-06-24T03:51:29;13.70;;;6.30;;
41343;SDS011;27089;50.022;7.604;2023-06-24T03:53:56;12.83;;;6.43;;
41343;SDS011;27089;50.022;7.604;2023-06-24T03:56:23;18.83;;;6.33;;
41343;SDS011;27089;50.022;7.604;2023-06-24T03:58:50;11.63;;;6.50;;
41343;SDS011;27089;50.022;7.604;2023-06-24T04:01:17;19.27;;;6.10;;
41343;SDS011;27089;50.022;7.604;2023-06-24T04:03:46;11.50;;;6.13;;
41343;SDS011;27089;50.022;7.604;2023-06-24T04:06:13;19.23;;;6.83;;
41343;SDS011;27089;50.022;7.604;2023-06-24T04:08:40;13.13;;;6.40;;
41343;SDS011;27089;50.022;7.604;2023-06-24T04:11:08;10.80;;;5.80;;
41343;SDS011;27089;50.022;7.604;2023-06-24T04:13:36;10.87;;;6.17;;
41343;SDS011;27089;50.022;7.604;2023-06-24T04:16:03;8.00;;;5.93;;
41343;SDS011;27089;50.022;7.604;2023-06-24T04:18:30;12.67;;;5.63;;
41343;SDS011;27089;50.022;7.604;2023-06-24T04:20:59;7.90;;;4.43;;
41343;SDS011;27089;50.022;7.604;2023-06-24T04:23:26;9.90;;;4.43;;
41343;SDS011;27089;50.022;7.604;2023-06-24T04:25:53;11.70;;;4.93;;
41343;SDS011;27089;50.022;7.604;2023-06-24T04:28:20;12.77;;;4.80;;
41343;SDS011;27089;50.022;7.604;2023-06-24T04:30:46;7.50;;;4.40;;
41343;SDS011;27089;50.022;7.604;2023-06-24T04:33:14;8.83;;;4.60;;
41343;SDS011;27089;50.022;7.604;2023-06-24T04:35:41;11.67;;;4.47;;
41343;SDS011;27089;50.022;7.604;2023-06-24T04:38:10;7.97;;;4.00;;
41343;SDS011;27089;50.022;7.604;2023-06-24T04:40:43;9.02;;;4.43;;
41343;SDS011;27089;50.022;7.604;2023-06-24T04:43:10;7.70;;;4.53;;
41343;SDS011;27089;50.022;7.604;2023-06-24T04:45:37;8.00;;;4.53;;
41343;SDS011;27089;50.022;7.604;2023-06-24T04:48:04;9.20;;;4.60;;
41343;SDS011;27089;50.022;7.604;2023-06-24T04:50:31;9.00;;;4.73;;
41343;SDS011;27089;50.022;7.604;2023-06-24T04:52:58;8.93;;;5.00;;
41343;SDS011;27089;50.022;7.604;2023-06-24T04:55:28;11.53;;;5.10;;
41343;SDS011;27089;50.022;7.604;2023-06-24T04:57:56;10.68;;;5.15;;
41343;SDS011;27089;50.022;7.604;2023-06-24T05:00:23;7.75;;;5.15;;
41343;SDS011;27089;50.022;7.604;2023-06-24T05:02:50;6.28;;;4.38;;
41343;SDS011;27089;50.022;7.604;2023-06-24T05:05:17;8.70;;;4.72;;
41343;SDS011;27089;50.022;7.604;2023-06-24T05:07:45;6.80;;;5.15;;
41343;SDS011;27089;50.022;7.604;2023-06-24T05:10:12;6.95;;;4.88;;
41343;SDS011;27089;50.022;7.604;2023-06-24T05:12:40;7.78;;;4.97;;
41343;SDS011;27089;50.022;7.604;2023-06-24T05:15:08;10.23;;;5.13;;
41343;SDS011;27089;50.022;7.604;2023-06-24T05:17:35;8.85;;;5.22;;
41343;SDS011;27089;50.022;7.604;2023-06-24T05:20:02;5.43;;;4.65;;
41343;SDS011;27089;50.022;7.604;2023-06-24T05:22:30;5.53;;;5.00;;
41343;SDS011;27089;50.022;7.604;2023-06-24T05:24:57;6.15;;;5.55;;
41343;SDS011;27089;50.022;7.604;2023-06-24T05:27:24;6.68;;;5.38;;
41343;SDS011;27089;50.022;7.604;2023-06-24T05:29:53;7.10;;;5.32;;
41343;SDS011;27089;50.022;7.604;2023-06-24T05:32:20;7.05;;;5.85;;
41343;SDS011;27089;50.022;7.604;2023-06-24T05:34:46;6.43;;;5.50;;
41343;SDS011;27089;50.022;7.604;2023-06-24T05:37:13;7.97;;;6.35;;
41343;SDS011;27089;50.022;7.604;2023-06-24T05:39:40;7.18;;;5.32;;
41343;SDS011;27089;50.022;7.604;2023-06-24T05:42:08;6.97;;;5.00;;
41343;SDS011;27089;50.022;7.604;2023-06-24T05:44:35;6.68;;;5.25;;
41343;SDS011;27089;50.022;7.604;2023-06-24T05:47:03;5.93;;;5.22;;
41343;SDS011;27089;50.022;7.604;2023-06-24T05:49:30;9.55;;;5.32;;
41343;SDS011;27089;50.022;7.604;2023-06-24T05:51:58;8.68;;;5.43;;
41343;SDS011;27089;50.022;7.604;2023-06-24T05:54:25;7.68;;;5.10;;
41343;SDS011;27089;50.022;7.604;2023-06-24T05:56:52;8.70;;;5.68;;
41343;SDS011;27089;50.022;7.604;2023-06-24T05:59:19;7.63;;;5.63;;
41343;SDS011;27089;50.022;7.604;2023-06-24T06:01:46;6.93;;;5.38;;
41343;SDS011;27089;50.022;7.604;2023-06-24T06:04:14;8.70;;;6.40;;
41343;SDS011;27089;50.022;7.604;2023-06-24T06:06:41;6.93;;;5.68;;
41343;SDS011;27089;50.022;7.604;2023-06-24T06:09:08;7.18;;;5.90;;
41343;SDS011;27089;50.022;7.604;2023-06-24T06:11:35;9.63;;;6.47;;
41343;SDS011;27089;50.022;7.604;2023-06-24T06:14:02;6.07;;;5.45;;
41343;SDS011;27089;50.022;7.604;2023-06-24T06:16:29;6.68;;;5.40;;
41343;SDS011;27089;50.022;7.604;2023-06-24T06:18:56;6.00;;;5.40;;
41343;SDS011;27089;50.022;7.604;2023-06-24T06:21:25;7.22;;;5.82;;
41343;SDS011;27089;50.022;7.604;2023-06-24T06:23:52;7.38;;;5.78;;
41343;SDS011;27089;50.022;7.604;2023-06-24T06:26:19;7.32;;;5.60;;
41343;SDS011;27089;50.022;7.604;2023-06-24T06:28:46;6.30;;;5.68;;
41343;SDS011;27089;50.022;7.604;2023-06-24T06:31:13;6.13;;;5.35;;
41343;SDS011;27089;50.022;7.604;2023-06-24T06:33:40;6.90;;;6.15;;
41343;SDS011;27089;50.022;7.604;2023-06-24T06:36:07;8.00;;;5.95;;
41343;SDS011;27089;50.022;7.604;2023-06-24T06:38:35;6.90;;;6.28;;
41343;SDS011;27089;50.022;7.604;2023-06-24T06:41:02;6.28;;;5.70;;
41343;SDS011;27089;50.022;7.604;2023-06-24T06:43:29;6.32;;;5.72;;
41343;SDS011;27089;50.022;7.604;2023-06-24T06:45:56;8.27;;;5.38;;
41343;SDS011;27089;50.022;7.604;2023-06-24T06:48:23;5.72;;;5.22;;
41343;SDS011;27089;50.022;7.604;2023-06-24T06:50:52;6.35;;;5.15;;
41343;SDS011;27089;50.022;7.604;2023-06-24T06:53:19;5.75;;;5.25;;
41343;SDS011;27089;50.022;7.604;2023-06-24T06:55:47;7.78;;;5.68;;
41343;SDS011;27089;50.022;7.604;2023-06-24T06:58:14;5.90;;;5.18;;
41343;SDS011;27089;50.022;7.604;2023-06-24T07:00:41;6.57;;;4.65;;
41343;SDS011;27089;50.022;7.604;2023-06-24T07:03:08;6.57;;;4.80;;
41343;SDS011;27089;50.022;7.604;2023-06-24T07:05:35;6.25;;;4.72;;
41343;SDS011;27089;50.022;7.604;2023-06-24T07:08:03;5.90;;;4.10;;
41343;SDS011;27089;50.022;7.604;2023-06-24T07:10:31;5.65;;;5.05;;
41343;SDS011;27089;50.022;7.604;2023-06-24T07:13:00;6.03;;;4.88;;
41343;SDS011;27089;50.022;7.604;2023-06-24T07:15:27;5.20;;;4.70;;
41343;SDS011;27089;50.022;7.604;2023-06-24T07:17:54;6.18;;;4.82;;
41343;SDS011;27089;50.022;7.604;2023-06-24T07:20:21;7.15;;;5.00;;
41343;SDS011;27089;50.022;7.604;2023-06-24T07:22:48;6.30;;;4.78;;
41343;SDS011;27089;50.022;7.604;2023-06-24T07:25:15;7.40;;;5.05;;
41343;SDS011;27089;50.022;7.604;2023-06-24T07:27:42;5.28;;;4.78;;
41343;SDS011;27089;50.022;7.604;2023-06-24T07:30:11;6.20;;;4.88;;
41343;SDS011;27089;50.022;7.604;2023-06-24T07:32:38;6.10;;;4.75;;
41343;SDS011;27089;50.022;7.604;2023-06-24T07:35:05;5.43;;;4.93;;
41343;SDS011;27089;50.022;7.604;2023-06-24T07:37:33;6.90;;;4.53;;
41343;SDS011;27089;50.022;7.604;2023-06-24T07:40:01;6.75;;;4.03;;
41343;SDS011;27089;50.022;7.604;2023-06-24T07:42:30;6.70;;;3.90;;
41343;SDS011;27089;50.022;7.604;2023-06-24T07:44:57;4.15;;;3.70;;
41343;SDS011;27089;50.022;7.604;2023-06-24T07:47:25;5.43;;;3.65;;
41343;SDS011;27089;50.022;7.604;2023-06-24T07:49:52;5.25;;;4.18;;
41343;SDS011;27089;50.022;7.604;2023-06-24T07:52:19;6.07;;;3.72;;
41343;SDS011;27089;50.022;7.604;2023-06-24T07:54:46;5.13;;;3.90;;
41343;SDS011;27089;50.022;7.604;2023-06-24T07:57:14;4.03;;;3.63;;
41343;SDS011;27089;50.022;7.604;2023-06-24T07:59:42;4.57;;;4.00;;
41343;SDS011;27089;50.022;7.604;2023-06-24T08:02:09;4.82;;;4.03;;
41343;SDS011;27089;50.022;7.604;2023-06-24T08:04:37;7.00;;;4.13;;
41343;SDS011;27089;50.022;7.604;2023-06-24T08:07:04;4.53;;;4.13;;
41343;SDS011;27089;50.022;7.604;2023-06-24T08:09:31;4.97;;;3.70;;
41343;SDS011;27089;50.022;7.604;2023-06-24T08:11:58;6.22;;;3.72;;
41343;SDS011;27089;50.022;7.604;2023-06-24T08:14:25;5.30;;;4.13;;
41343;SDS011;27089;50.022;7.604;2023-06-24T08:16:52;3.90;;;3.50;;
41343;SDS011;27089;50.022;7.604;2023-06-24T08:19:19;4.88;;;4.28;;
41343;SDS011;27089;50.022;7.604;2023-06-24T08:21:47;4.15;;;3.75;;
41343;SDS011;27089;50.022;7.604;2023-06-24T08:24:14;4.93;;;3.67;;
41343;SDS011;27089;50.022;7.604;2023-06-24T08:26:41;5.82;;;4.22;;
41343;SDS011;27089;50.022;7.604;2023-06-24T08:29:08;4.20;;;3.80;;
41343;SDS011;27089;50.022;7.604;2023-06-24T08:31:35;4.18;;;3.78;;
41343;SDS011;27089;50.022;7.604;2023-06-24T08:34:02;4.80;;;4.25;;
41343;SDS011;27089;50.022;7.604;2023-06-24T08:36:31;4.63;;;3.78;;
41343;SDS011;27089;50.022;7.604;2023-06-24T08:38:59;4.20;;;3.80;;
41343;SDS011;27089;50.022;7.604;2023-06-24T08:41:26;5.55;;;4.10;;
41343;SDS011;27089;50.022;7.604;2023-06-24T08:43:53;4.15;;;3.72;;
41343;SDS011;27089;50.022;7.604;2023-06-24T08:46:21;6.32;;;4.38;;
41343;SDS011;27089;50.022;7.604;2023-06-24T08:48:50;4.60;;;4.00;;
41343;SDS011;27089;50.022;7.604;2023-06-24T08:51:20;5.07;;;4.32;;
41343;SDS011;27089;50.022;7.604;2023-06-24T08:53:53;4.82;;;3.80;;
41343;SDS011;27089;50.022;7.604;2023-06-24T08:56:22;5.60;;;4.50;;
41343;SDS011;27089;50.022;7.604;2023-06-24T08:58:49;5.30;;;4.30;;
41343;SDS011;27089;50.022;7.604;2023-06-24T09:01:17;5.03;;;4.05;;
41343;SDS011;27089;50.022;7.604;2023-06-24T09:03:44;5.43;;;3.80;;
41343;SDS011;27089;50.022;7.604;2023-06-24T09:06:11;5.07;;;4.13;;
41343;SDS011;27089;50.022;7.604;2023-06-24T09:08:38;5.18;;;3.70;;
41343;SDS011;27089;50.022;7.604;2023-06-24T09:11:06;5.47;;;3.88;;
41343;SDS011;27089;50.022;7.604;2023-06-24T09:13:36;5.00;;;4.50;;
41343;SDS011;27089;50.022;7.604;2023-06-24T09:16:13;5.22;;;3.90;;
41343;SDS011;27089;50.022;7.604;2023-06-24T09:18:41;7.18;;;3.90;;
41343;SDS011;27089;50.022;7.604;2023-06-24T09:21:10;4.32;;;3.92;;
41343;SDS011;27089;50.022;7.604;2023-06-24T09:23:37;4.45;;;3.90;;
41343;SDS011;27089;50.022;7.604;2023-06-24T09:26:05;6.20;;;4.03;;
41343;SDS011;27089;50.022;7.604;2023-06-24T09:28:37;4.30;;;3.90;;
41343;SDS011;27089;50.022;7.604;2023-06-24T09:31:05;5.82;;;3.80;;
41343;SDS011;27089;50.022;7.604;2023-06-24T09:33:33;6.80;;;3.83;;
41343;SDS011;27089;50.022;7.604;2023-06-24T09:36:01;9.00;;;4.47;;
41343;SDS011;27089;50.022;7.604;2023-06-24T09:38:33;5.88;;;3.90;;
41343;SDS011;27089;50.022;7.604;2023-06-24T09:41:02;6.07;;;3.65;;
41343;SDS011;27089;50.022;7.604;2023-06-24T09:43:29;4.72;;;3.65;;
41343;SDS011;27089;50.022;7.604;2023-06-24T09:45:58;4.20;;;3.60;;
41343;SDS011;27089;50.022;7.604;2023-06-24T09:48:27;3.70;;;3.30;;
41343;SDS011;27089;50.022;7.604;2023-06-24T09:50:54;4.30;;;3.90;;
41343;SDS011;27089;50.022;7.604;2023-06-24T09:53:23;4.55;;;3.63;;
41343;SDS011;27089;50.022;7.604;2023-06-24T09:55:50;3.00;;;2.75;;
41343;SDS011;27089;50.022;7.604;2023-06-24T09:58:18;4.13;;;3.75;;
41343;SDS011;27089;50.022;7.604;2023-06-24T10:00:46;4.32;;;3.53;;
41343;SDS011;27089;50.022;7.604;2023-06-24T10:03:15;4.00;;;3.60;;
41343;SDS011;27089;50.022;7.604;2023-06-24T10:05:43;3.25;;;2.97;;
41343;SDS011;27089;50.022;7.604;2023-06-24T10:08:12;4.03;;;3.72;;
41343;SDS011;27089;50.022;7.604;2023-06-24T10:10:40;5.05;;;3.42;;
41343;SDS011;27089;50.022;7.604;2023-06-24T10:13:07;3.97;;;3.67;;
41343;SDS011;27089;50.022;7.604;2023-06-24T10:15:35;4.15;;;3.75;;
41343;SDS011;27089;50.022;7.604;2023-06-24T10:18:02;4.78;;;3.40;;
41343;SDS011;27089;50.022;7.604;2023-06-24T10:20:31;3.95;;;3.60;;
41343;SDS011;27089;50.022;7.604;2023-06-24T10:23:05;3.72;;;3.30;;
41343;SDS011;27089;50.022;7.604;2023-06-24T10:25:35;5.07;;;3.72;;
41343;SDS011;27089;50.022;7.604;2023-06-24T10:28:03;6.88;;;3.72;;
41343;SDS011;27089;50.022;7.604;2023-06-24T10:30:30;4.00;;;3.60;;
41343;SDS011;27089;50.022;7.604;2023-06-24T10:32:58;5.50;;;3.50;;
41343;SDS011;27089;50.022;7.604;2023-06-24T10:35:25;4.07;;;3.50;;
41343;SDS011;27089;50.022;7.604;2023-06-24T10:37:56;4.68;;;4.10;;
41343;SDS011;27089;50.022;7.604;2023-06-24T10:40:33;4.18;;;3.83;;
41343;SDS011;27089;50.022;7.604;2023-06-24T10:43:03;3.67;;;3.30;;
41343;SDS011;27089;50.022;7.604;2023-06-24T10:45:51;3.40;;;3.10;;
41343;SDS011;27089;50.022;7.604;2023-06-24T10:48:18;4.30;;;3.13;;
41343;SDS011;27089;50.022;7.604;2023-06-24T10:50:45;3.28;;;2.72;;
41343;SDS011;27089;50.022;7.604;2023-06-24T10:53:14;3.40;;;3.10;;
41343;SDS011;27089;50.022;7.604;2023-06-24T10:55:44;6.47;;;3.42;;
41343;SDS011;27089;50.022;7.604;2023-06-24T10:58:12;4.10;;;3.53;;
41343;SDS011;27089;50.022;7.604;2023-06-24T11:00:40;4.53;;;3.67;;
41343;SDS011;27089;50.022;7.604;2023-06-24T11:03:09;4.80;;;3.67;;
41343;SDS011;27089;50.022;7.604;2023-06-24T11:05:40;3.72;;;3.33;;
41343;SDS011;27089;50.022;7.604;2023-06-24T11:08:07;4.30;;;3.38;;
41343;SDS011;27089;50.022;7.604;2023-06-24T11:10:43;4.25;;;3.17;;
41343;SDS011;27089;50.022;7.604;2023-06-24T11:13:11;3.65;;;3.35;;
41343;SDS011;27089;50.022;7.604;2023-06-24T11:15:38;3.30;;;3.00;;
41343;SDS011;27089;50.022;7.604;2023-06-24T11:18:07;3.97;;;3.30;;
41343;SDS011;27089;50.022;7.604;2023-06-24T11:20:35;3.53;;;2.95;;
41343;SDS011;27089;50.022;7.604;2023-06-24T11:23:06;5.22;;;3.70;;
41343;SDS011;27089;50.022;7.604;2023-06-24T11:25:38;4.00;;;3.30;;
41343;SDS011;27089;50.022;7.604;2023-06-24T11:28:13;3.83;;;3.40;;
41343;SDS011;27089;50.022;7.604;2023-06-24T11:30:41;4.88;;;3.50;;
41343;SDS011;27089;50.022;7.604;2023-06-24T11:33:08;4.22;;;3.83;;
41343;SDS011;27089;50.022;7.604;2023-06-24T11:35:35;3.97;;;3.55;;
41343;SDS011;27089;50.022;7.604;2023-06-24T11:38:02;4.50;;;3.80;;
41343;SDS011;27089;50.022;7.604;2023-06-24T11:40:30;3.90;;;3.30;;
41343;SDS011;27089;50.022;7.604;2023-06-24T11:43:00;4.20;;;3.58;;
41343;SDS011;27089;50.022;7.604;2023-06-24T11:45:29;3.67;;;3.28;;
41343;SDS011;27089;50.022;7.604;2023-06-24T11:48:01;3.63;;;3.20;;
41343;SDS011;27089;50.022;7.604;2023-06-24T11:50:33;3.47;;;3.17;;
41343;SDS011;27089;50.022;7.604;2023-06-24T11:53:02;5.13;;;3.45;;
41343;SDS011;27089;50.022;7.604;2023-06-24T11:55:30;4.07;;;3.50;;
41343;SDS011;27089;50.022;7.604;2023-06-24T11:57:58;3.90;;;3.50;;
41343;SDS011;27089;50.022;7.604;2023-06-24T12:00:28;4.60;;;3.65;;
41343;SDS011;27089;50.022;7.604;2023-06-24T12:02:59;5.13;;;3.30;;
41343;SDS011;27089;50.022;7.604;2023-06-24T12:05:27;6.10;;;3.70;;
41343;SDS011;27089;50.022;7.604;2023-06-24T12:07:59;3.95;;;3.28;;
41343;SDS011;27089;50.022;7.604;2023-06-24T12:10:27;7.22;;;3.65;;
41343;SDS011;27089;50.022;7.604;2023-06-24T12:12:56;3.67;;;3.25;;
41343;SDS011;27089;50.022;7.604;2023-06-24T12:15:23;4.30;;;3.30;;
41343;SDS011;27089;50.022;7.604;2023-06-24T12:17:52;3.55;;;3.25;;
41343;SDS011;27089;50.022;7.604;2023-06-24T12:20:19;5.28;;;3.35;;
41343;SDS011;27089;50.022;7.604;2023-06-24T12:22:46;3.45;;;3.13;;
41343;SDS011;27089;50.022;7.604;2023-06-24T12:25:14;6.07;;;3.60;;
41343;SDS011;27089;50.022;7.604;2023-06-24T12:27:42;3.58;;;3.25;;
41343;SDS011;27089;50.022;7.604;2023-06-24T12:30:10;3.70;;;3.17;;
41343;SDS011;27089;50.022;7.604;2023-06-24T12:32:37;4.63;;;3.70;;
41343;SDS011;27089;50.022;7.604;2023-06-24T12:35:06;5.00;;;3.78;;
41343;SDS011;27089;50.022;7.604;2023-06-24T12:37:34;4.35;;;3.47;;
41343;SDS011;27089;50.022;7.604;2023-06-24T12:40:03;3.92;;;3.30;;
41343;SDS011;27089;50.022;7.604;2023-06-24T12:42:31;5.38;;;3.58;;
41343;SDS011;27089;50.022;7.604;2023-06-24T12:44:58;4.90;;;3.53;;
41343;SDS011;27089;50.022;7.604;2023-06-24T12:47:25;4.63;;;3.83;;
41343;SDS011;27089;50.022;7.604;2023-06-24T12:49:52;4.00;;;3.35;;
41343;SDS011;27089;50.022;7.604;2023-06-24T12:52:21;3.85;;;3.25;;
41343;SDS011;27089;50.022;7.604;2023-06-24T12:54:48;3.78;;;3.38;;
41343;SDS011;27089;50.022;7.604;2023-06-24T12:57:15;4.32;;;3.65;;
41343;SDS011;27089;50.022;7.604;2023-06-24T12:59:41;5.10;;;3.90;;
41343;SDS011;27089;50.022;7.604;2023-06-24T13:02:08;6.35;;;3.55;;
41343;SDS011;27089;50.022;7.604;2023-06-24T13:04:35;5.72;;;3.40;;
41343;SDS011;27089;50.022;7.604;2023-06-24T13:07:02;4.30;;;3.90;;
41343;SDS011;27089;50.022;7.604;2023-06-24T13:09:31;3.85;;;3.25;;
41343;SDS011;27089;50.022;7.604;2023-06-24T13:11:58;3.90;;;3.50;;
41343;SDS011;27089;50.022;7.604;2023-06-24T13:14:25;4.50;;;3.92;;
41343;SDS011;27089;50.022;7.604;2023-06-24T13:16:53;3.92;;;3.40;;
41343;SDS011;27089;50.022;7.604;2023-06-24T13:19:20;3.80;;;3.42;;
41343;SDS011;27089;50.022;7.604;2023-06-24T13:21:47;5.10;;;3.97;;
41343;SDS011;27089;50.022;7.604;2023-06-24T13:24:14;4.60;;;4.00;;
41343;SDS011;27089;50.022;7.604;2023-06-24T13:26:42;4.28;;;3.70;;
41343;SDS011;27089;50.022;7.604;2023-06-24T13:29:09;4.32;;;3.30;;
41343;SDS011;27089;50.022;7.604;2023-06-24T13:31:36;4.18;;;3.78;;
41343;SDS011;27089;50.022;7.604;2023-06-24T13:34:03;4.25;;;3.80;;
41343;SDS011;27089;50.022;7.604;2023-06-24T13:36:31;4.07;;;3.72;;
41343;SDS011;27089;50.022;7.604;2023-06-24T13:39:00;4.57;;;4.13;;
41343;SDS011;27089;50.022;7.604;2023-06-24T13:41:28;4.63;;;4.15;;
41343;SDS011;27089;50.022;7.604;2023-06-24T13:43:58;4.28;;;3.88;;
41343;SDS011;27089;50.022;7.604;2023-06-24T13:46:26;5.00;;;3.90;;
41343;SDS011;27089;50.022;7.604;2023-06-24T13:48:54;4.13;;;3.60;;
41343;SDS011;27089;50.022;7.604;2023-06-24T13:51:21;4.20;;;3.72;;
41343;SDS011;27089;50.022;7.604;2023-06-24T13:53:49;4.10;;;3.70;;
41343;SDS011;27089;50.022;7.604;2023-06-24T13:56:17;3.80;;;3.40;;
41343;SDS011;27089;50.022;7.604;2023-06-24T13:58:44;4.47;;;4.07;;
41343;SDS011;27089;50.022;7.604;2023-06-24T14:01:12;4.03;;;3.63;;
41343;SDS011;27089;50.022;7.604;2023-06-24T14:03:40;6.75;;;3.65;;
41343;SDS011;27089;50.022;7.604;2023-06-24T14:06:07;4.88;;;4.15;;
41343;SDS011;27089;50.022;7.604;2023-06-24T14:08:34;4.20;;;3.80;;
41343;SDS011;27089;50.022;7.604;2023-06-24T14:11:02;3.53;;;3.22;;
41343;SDS011;27089;50.022;7.604;2023-06-24T14:13:29;5.05;;;3.42;;
41343;SDS011;27089;50.022;7.604;2023-06-24T14:15:56;4.57;;;3.60;;
41343;SDS011;27089;50.022;7.604;2023-06-24T14:18:25;3.97;;;3.40;;
41343;SDS011;27089;50.022;7.604;2023-06-24T14:20:52;4.35;;;3.95;;
41343;SDS011;27089;50.022;7.604;2023-06-24T14:23:19;4.95;;;3.80;;
41343;SDS011;27089;50.022;7.604;2023-06-24T14:25:45;6.25;;;3.65;;
41343;SDS011;27089;50.022;7.604;2023-06-24T14:28:12;5.38;;;3.72;;
41343;SDS011;27089;50.022;7.604;2023-06-24T14:30:39;4.93;;;4.00;;
41343;SDS011;27089;50.022;7.604;2023-06-24T14:33:07;5.60;;;4.03;;
41343;SDS011;27089;50.022;7.604;2023-06-24T14:35:36;5.03;;;3.90;;
41343;SDS011;27089;50.022;7.604;2023-06-24T14:38:03;4.68;;;3.78;;
41343;SDS011;27089;50.022;7.604;2023-06-24T14:40:30;4.68;;;3.90;;
41343;SDS011;27089;50.022;7.604;2023-06-24T14:42:57;4.32;;;3.58;;
41343;SDS011;27089;50.022;7.604;2023-06-24T14:45:26;4.53;;;3.67;;
41343;SDS011;27089;50.022;7.604;2023-06-24T14:47:53;4.40;;;4.00;;
41343;SDS011;27089;50.022;7.604;2023-06-24T14:50:22;4.03;;;3.63;;
41343;SDS011;27089;50.022;7.604;2023-06-24T14:52:50;4.90;;;3.83;;